sensor_id;sensor_type;location;lat;lon;timestamp;P1;durP1;ratioP1;P2;durP2;ratioP2
25846;SDS011;13676;50.168;8.568;2023-12-20T00:01:36;12.98;;;8.88;;
25846;SDS011;13676;50.168;8.568;2023-12-20T00:04:02;9.95;;;7.95;;
25846;SDS011;13676;50.168;8.568;2023-12-20T00:06:27;11.27;;;8.75;;
25846;SDS011;13676;50.168;8.568;2023-12-20T00:08:53;11.88;;;8.98;;
25846;SDS011;13676;50.168;8.568;2023-12-20T00:11:18;12.48;;;8.75;;
25846;SDS011;13676;50.168;8.568;2023-12-20T00:13:44;10.35;;;7.68;;
25846;SDS011;13676;50.168;8.568;2023-12-20T00:16:09;13.02;;;8.43;;
25846;SDS011;13676;50.168;8.568;2023-12-20T00:18:35;13.63;;;8.20;;
25846;SDS011;13676;50.168;8.568;2023-12-20T00:21:00;11.27;;;8.35;;
25846;SDS011;13676;50.168;8.568;2023-12-20T00:23:25;9.63;;;7.32;;
25846;SDS011;13676;50.168;8.568;2023-12-20T00:25:51;10.77;;;7.85;;
25846;SDS011;13676;50.168;8.568;2023-12-20T00:28:16;12.48;;;7.95;;
25846;SDS011;13676;50.168;8.568;2023-12-20T00:30:41;10.07;;;7.07;;
25846;SDS011;13676;50.168;8.568;2023-12-20T00:33:07;11.27;;;8.93;;
25846;SDS011;13676;50.168;8.568;2023-12-20T00:35:32;10.07;;;7.60;;
25846;SDS011;13676;50.168;8.568;2023-12-20T00:37:58;11.05;;;8.48;;
25846;SDS011;13676;50.168;8.568;2023-12-20T00:40:23;12.20;;;7.75;;
25846;SDS011;13676;50.168;8.568;2023-12-20T00:42:49;10.32;;;7.95;;
25846;SDS011;13676;50.168;8.568;2023-12-20T00:45:14;9.13;;;6.82;;
25846;SDS011;13676;50.168;8.568;2023-12-20T00:47:41;8.70;;;7.22;;
25846;SDS011;13676;50.168;8.568;2023-12-20T00:50:06;10.35;;;7.80;;
25846;SDS011;13676;50.168;8.568;2023-12-20T00:52:33;9.43;;;6.80;;
25846;SDS011;13676;50.168;8.568;2023-12-20T00:54:59;8.55;;;6.72;;
25846;SDS011;13676;50.168;8.568;2023-12-20T00:57:25;10.07;;;7.72;;
25846;SDS011;13676;50.168;8.568;2023-12-20T00:59:50;9.30;;;6.85;;
25846;SDS011;13676;50.168;8.568;2023-12-20T01:02:16;8.18;;;6.85;;
25846;SDS011;13676;50.168;8.568;2023-12-20T01:04:41;10.25;;;7.50;;
25846;SDS011;13676;50.168;8.568;2023-12-20T01:07:07;10.30;;;7.00;;
25846;SDS011;13676;50.168;8.568;2023-12-20T01:09:33;7.43;;;6.32;;
25846;SDS011;13676;50.168;8.568;2023-12-20T01:11:58;11.38;;;6.55;;
25846;SDS011;13676;50.168;8.568;2023-12-20T01:14:24;9.80;;;6.72;;
25846;SDS011;13676;50.168;8.568;2023-12-20T01:16:49;10.60;;;7.47;;
25846;SDS011;13676;50.168;8.568;2023-12-20T01:19:14;6.97;;;6.03;;
25846;SDS011;13676;50.168;8.568;2023-12-20T01:21:41;9.18;;;6.45;;
25846;SDS011;13676;50.168;8.568;2023-12-20T01:24:06;9.10;;;6.80;;
25846;SDS011;13676;50.168;8.568;2023-12-20T01:26:32;7.75;;;6.57;;
25846;SDS011;13676;50.168;8.568;2023-12-20T01:28:57;8.10;;;6.47;;
25846;SDS011;13676;50.168;8.568;2023-12-20T01:31:22;9.13;;;6.75;;
25846;SDS011;13676;50.168;8.568;2023-12-20T01:33:49;7.28;;;6.10;;
25846;SDS011;13676;50.168;8.568;2023-12-20T01:36:14;7.90;;;6.22;;
25846;SDS011;13676;50.168;8.568;2023-12-20T01:38:40;9.77;;;7.25;;
25846;SDS011;13676;50.168;8.568;2023-12-20T01:41:05;8.35;;;6.32;;
25846;SDS011;13676;50.168;8.568;2023-12-20T01:43:30;7.07;;;5.72;;
25846;SDS011;13676;50.168;8.568;2023-12-20T01:45:56;6.75;;;6.00;;
25846;SDS011;13676;50.168;8.568;2023-12-20T01:48:23;7.18;;;6.43;;
25846;SDS011;13676;50.168;8.568;2023-12-20T01:50:51;7.60;;;5.87;;
25846;SDS011;13676;50.168;8.568;2023-12-20T01:53:19;9.80;;;6.32;;
25846;SDS011;13676;50.168;8.568;2023-12-20T01:55:46;8.93;;;6.55;;
25846;SDS011;13676;50.168;8.568;2023-12-20T01:58:12;7.72;;;6.10;;
25846;SDS011;13676;50.168;8.568;2023-12-20T02:00:39;7.55;;;6.53;;
25846;SDS011;13676;50.168;8.568;2023-12-20T02:03:06;7.60;;;5.97;;
25846;SDS011;13676;50.168;8.568;2023-12-20T02:05:32;8.23;;;5.40;;
25846;SDS011;13676;50.168;8.568;2023-12-20T02:07:58;7.00;;;6.07;;
25846;SDS011;13676;50.168;8.568;2023-12-20T02:10:23;6.65;;;5.95;;
25846;SDS011;13676;50.168;8.568;2023-12-20T02:12:49;7.05;;;5.75;;
25846;SDS011;13676;50.168;8.568;2023-12-20T02:15:15;6.50;;;5.90;;
25846;SDS011;13676;50.168;8.568;2023-12-20T02:17:40;6.75;;;5.70;;
25846;SDS011;13676;50.168;8.568;2023-12-20T02:20:06;7.30;;;5.78;;
25846;SDS011;13676;50.168;8.568;2023-12-20T02:22:33;6.20;;;5.60;;
25846;SDS011;13676;50.168;8.568;2023-12-20T02:24:58;7.47;;;5.65;;
25846;SDS011;13676;50.168;8.568;2023-12-20T02:27:23;6.28;;;5.53;;
25846;SDS011;13676;50.168;8.568;2023-12-20T02:29:49;6.68;;;5.63;;
25846;SDS011;13676;50.168;8.568;2023-12-20T02:32:18;6.47;;;5.30;;
25846;SDS011;13676;50.168;8.568;2023-12-20T02:34:45;7.35;;;5.82;;
25846;SDS011;13676;50.168;8.568;2023-12-20T02:37:12;7.18;;;5.88;;
25846;SDS011;13676;50.168;8.568;2023-12-20T02:39:37;6.78;;;6.03;;
25846;SDS011;13676;50.168;8.568;2023-12-20T02:42:02;6.78;;;6.00;;
25846;SDS011;13676;50.168;8.568;2023-12-20T02:44:28;6.70;;;5.80;;
25846;SDS011;13676;50.168;8.568;2023-12-20T02:46:53;9.55;;;6.15;;
25846;SDS011;13676;50.168;8.568;2023-12-20T02:49:19;7.60;;;5.90;;
25846;SDS011;13676;50.168;8.568;2023-12-20T02:51:44;8.68;;;6.38;;
25846;SDS011;13676;50.168;8.568;2023-12-20T02:54:10;7.32;;;6.28;;
25846;SDS011;13676;50.168;8.568;2023-12-20T02:56:35;7.18;;;5.80;;
25846;SDS011;13676;50.168;8.568;2023-12-20T02:59:01;7.80;;;6.00;;
25846;SDS011;13676;50.168;8.568;2023-12-20T03:01:27;7.43;;;6.45;;
25846;SDS011;13676;50.168;8.568;2023-12-20T03:03:53;7.38;;;5.70;;
25846;SDS011;13676;50.168;8.568;2023-12-20T03:06:19;6.43;;;5.68;;
25846;SDS011;13676;50.168;8.568;2023-12-20T03:08:44;10.50;;;6.90;;
25846;SDS011;13676;50.168;8.568;2023-12-20T03:11:11;7.75;;;6.60;;
25846;SDS011;13676;50.168;8.568;2023-12-20T03:13:37;8.75;;;6.32;;
25846;SDS011;13676;50.168;8.568;2023-12-20T03:16:12;7.63;;;6.13;;
25846;SDS011;13676;50.168;8.568;2023-12-20T03:18:39;6.65;;;5.65;;
25846;SDS011;13676;50.168;8.568;2023-12-20T03:21:04;6.57;;;5.88;;
25846;SDS011;13676;50.168;8.568;2023-12-20T03:23:30;7.25;;;5.93;;
25846;SDS011;13676;50.168;8.568;2023-12-20T03:25:57;8.93;;;6.15;;
25846;SDS011;13676;50.168;8.568;2023-12-20T03:28:23;6.00;;;4.88;;
25846;SDS011;13676;50.168;8.568;2023-12-20T03:30:48;7.05;;;4.93;;
25846;SDS011;13676;50.168;8.568;2023-12-20T03:33:14;6.07;;;5.30;;
25846;SDS011;13676;50.168;8.568;2023-12-20T03:35:40;5.65;;;4.95;;
25846;SDS011;13676;50.168;8.568;2023-12-20T03:38:06;6.70;;;5.60;;
25846;SDS011;13676;50.168;8.568;2023-12-20T03:40:32;6.70;;;5.32;;
25846;SDS011;13676;50.168;8.568;2023-12-20T03:42:57;5.18;;;4.68;;
25846;SDS011;13676;50.168;8.568;2023-12-20T03:45:22;4.75;;;4.25;;
25846;SDS011;13676;50.168;8.568;2023-12-20T03:47:48;4.35;;;3.95;;
25846;SDS011;13676;50.168;8.568;2023-12-20T03:50:13;5.30;;;4.45;;
25846;SDS011;13676;50.168;8.568;2023-12-20T03:52:39;5.07;;;4.07;;
25846;SDS011;13676;50.168;8.568;2023-12-20T03:55:04;5.10;;;4.20;;
25846;SDS011;13676;50.168;8.568;2023-12-20T03:57:30;5.57;;;3.95;;
25846;SDS011;13676;50.168;8.568;2023-12-20T03:59:56;4.85;;;4.05;;
25846;SDS011;13676;50.168;8.568;2023-12-20T04:02:21;5.55;;;4.25;;
25846;SDS011;13676;50.168;8.568;2023-12-20T04:04:48;4.15;;;3.75;;
25846;SDS011;13676;50.168;8.568;2023-12-20T04:07:13;3.95;;;3.55;;
25846;SDS011;13676;50.168;8.568;2023-12-20T04:09:40;4.75;;;4.03;;
25846;SDS011;13676;50.168;8.568;2023-12-20T04:12:06;5.40;;;4.00;;
25846;SDS011;13676;50.168;8.568;2023-12-20T04:14:31;4.65;;;3.88;;
25846;SDS011;13676;50.168;8.568;2023-12-20T04:16:57;4.78;;;3.60;;
25846;SDS011;13676;50.168;8.568;2023-12-20T04:19:23;5.32;;;3.97;;
25846;SDS011;13676;50.168;8.568;2023-12-20T04:21:49;4.32;;;3.92;;
25846;SDS011;13676;50.168;8.568;2023-12-20T04:24:14;4.47;;;3.88;;
25846;SDS011;13676;50.168;8.568;2023-12-20T04:26:39;4.20;;;3.80;;
25846;SDS011;13676;50.168;8.568;2023-12-20T04:29:05;6.85;;;4.20;;
25846;SDS011;13676;50.168;8.568;2023-12-20T04:31:30;4.32;;;3.72;;
25846;SDS011;13676;50.168;8.568;2023-12-20T04:33:55;4.90;;;3.60;;
25846;SDS011;13676;50.168;8.568;2023-12-20T04:36:21;4.47;;;3.50;;
25846;SDS011;13676;50.168;8.568;2023-12-20T04:38:46;6.10;;;4.45;;
25846;SDS011;13676;50.168;8.568;2023-12-20T04:41:12;3.90;;;3.50;;
25846;SDS011;13676;50.168;8.568;2023-12-20T04:43:40;4.95;;;4.18;;
25846;SDS011;13676;50.168;8.568;2023-12-20T04:46:06;4.18;;;3.17;;
25846;SDS011;13676;50.168;8.568;2023-12-20T04:48:31;5.30;;;3.42;;
25846;SDS011;13676;50.168;8.568;2023-12-20T04:50:58;3.88;;;3.40;;
25846;SDS011;13676;50.168;8.568;2023-12-20T04:53:23;4.28;;;3.40;;
25846;SDS011;13676;50.168;8.568;2023-12-20T04:55:48;3.95;;;3.45;;
25846;SDS011;13676;50.168;8.568;2023-12-20T04:58:14;3.97;;;3.33;;
25846;SDS011;13676;50.168;8.568;2023-12-20T05:00:39;4.30;;;3.50;;
25846;SDS011;13676;50.168;8.568;2023-12-20T05:03:05;5.80;;;3.22;;
25846;SDS011;13676;50.168;8.568;2023-12-20T05:05:30;5.18;;;4.13;;
25846;SDS011;13676;50.168;8.568;2023-12-20T05:07:57;4.97;;;3.00;;
25846;SDS011;13676;50.168;8.568;2023-12-20T05:10:22;3.72;;;3.00;;
25846;SDS011;13676;50.168;8.568;2023-12-20T05:12:48;6.13;;;3.22;;
25846;SDS011;13676;50.168;8.568;2023-12-20T05:15:14;4.05;;;2.55;;
25846;SDS011;13676;50.168;8.568;2023-12-20T05:17:39;6.82;;;3.13;;
25846;SDS011;13676;50.168;8.568;2023-12-20T05:20:05;6.93;;;3.53;;
25846;SDS011;13676;50.168;8.568;2023-12-20T05:22:30;5.35;;;2.80;;
25846;SDS011;13676;50.168;8.568;2023-12-20T05:24:56;2.83;;;2.45;;
25846;SDS011;13676;50.168;8.568;2023-12-20T05:27:21;3.25;;;2.70;;
25846;SDS011;13676;50.168;8.568;2023-12-20T05:29:47;4.40;;;3.10;;
25846;SDS011;13676;50.168;8.568;2023-12-20T05:32:12;5.45;;;2.97;;
25846;SDS011;13676;50.168;8.568;2023-12-20T05:34:39;5.32;;;2.95;;
25846;SDS011;13676;50.168;8.568;2023-12-20T05:37:04;4.93;;;3.15;;
25846;SDS011;13676;50.168;8.568;2023-12-20T05:39:29;5.32;;;2.15;;
25846;SDS011;13676;50.168;8.568;2023-12-20T05:41:56;9.00;;;2.40;;
25846;SDS011;13676;50.168;8.568;2023-12-20T05:44:21;4.63;;;2.00;;
25846;SDS011;13676;50.168;8.568;2023-12-20T05:46:47;10.27;;;2.30;;
25846;SDS011;13676;50.168;8.568;2023-12-20T05:49:12;5.05;;;1.83;;
25846;SDS011;13676;50.168;8.568;2023-12-20T05:51:38;6.00;;;1.48;;
25846;SDS011;13676;50.168;8.568;2023-12-20T05:54:03;6.43;;;1.80;;
25846;SDS011;13676;50.168;8.568;2023-12-20T05:56:29;5.72;;;2.13;;
25846;SDS011;13676;50.168;8.568;2023-12-20T05:58:54;6.40;;;1.70;;
25846;SDS011;13676;50.168;8.568;2023-12-20T06:01:19;6.63;;;2.00;;
25846;SDS011;13676;50.168;8.568;2023-12-20T06:03:45;4.45;;;1.75;;
25846;SDS011;13676;50.168;8.568;2023-12-20T06:06:13;8.43;;;2.25;;
25846;SDS011;13676;50.168;8.568;2023-12-20T06:08:39;5.32;;;1.70;;
25846;SDS011;13676;50.168;8.568;2023-12-20T06:11:04;6.38;;;1.70;;
25846;SDS011;13676;50.168;8.568;2023-12-20T06:13:30;3.35;;;1.52;;
25846;SDS011;13676;50.168;8.568;2023-12-20T06:15:56;12.48;;;2.65;;
25846;SDS011;13676;50.168;8.568;2023-12-20T06:18:21;8.10;;;2.05;;
25846;SDS011;13676;50.168;8.568;2023-12-20T06:20:47;8.82;;;1.70;;
25846;SDS011;13676;50.168;8.568;2023-12-20T06:23:12;5.97;;;1.80;;
25846;SDS011;13676;50.168;8.568;2023-12-20T06:25:38;4.72;;;2.00;;
25846;SDS011;13676;50.168;8.568;2023-12-20T06:28:03;2.58;;;1.50;;
25846;SDS011;13676;50.168;8.568;2023-12-20T06:30:29;3.05;;;1.55;;
25846;SDS011;13676;50.168;8.568;2023-12-20T06:32:55;10.60;;;2.10;;
25846;SDS011;13676;50.168;8.568;2023-12-20T06:35:22;8.25;;;1.60;;
25846;SDS011;13676;50.168;8.568;2023-12-20T06:37:47;10.90;;;2.17;;
25846;SDS011;13676;50.168;8.568;2023-12-20T06:40:13;5.32;;;2.00;;
25846;SDS011;13676;50.168;8.568;2023-12-20T06:42:38;6.45;;;1.63;;
25846;SDS011;13676;50.168;8.568;2023-12-20T06:45:04;5.85;;;1.90;;
25846;SDS011;13676;50.168;8.568;2023-12-20T06:47:31;8.20;;;1.98;;
25846;SDS011;13676;50.168;8.568;2023-12-20T06:49:56;5.82;;;1.80;;
25846;SDS011;13676;50.168;8.568;2023-12-20T06:52:21;7.75;;;1.85;;
25846;SDS011;13676;50.168;8.568;2023-12-20T06:54:47;6.25;;;1.60;;
25846;SDS011;13676;50.168;8.568;2023-12-20T06:57:12;4.80;;;1.45;;
25846;SDS011;13676;50.168;8.568;2023-12-20T06:59:41;7.97;;;1.85;;
25846;SDS011;13676;50.168;8.568;2023-12-20T07:02:07;8.50;;;2.00;;
25846;SDS011;13676;50.168;8.568;2023-12-20T07:04:33;5.40;;;1.98;;
25846;SDS011;13676;50.168;8.568;2023-12-20T07:06:59;6.95;;;2.08;;
25846;SDS011;13676;50.168;8.568;2023-12-20T07:09:25;7.28;;;2.22;;
25846;SDS011;13676;50.168;8.568;2023-12-20T07:11:51;8.15;;;2.50;;
25846;SDS011;13676;50.168;8.568;2023-12-20T07:14:17;10.90;;;2.50;;
25846;SDS011;13676;50.168;8.568;2023-12-20T07:16:42;6.72;;;2.05;;
25846;SDS011;13676;50.168;8.568;2023-12-20T07:19:08;9.18;;;2.65;;
25846;SDS011;13676;50.168;8.568;2023-12-20T07:21:33;7.18;;;2.60;;
25846;SDS011;13676;50.168;8.568;2023-12-20T07:23:59;18.30;;;3.13;;
25846;SDS011;13676;50.168;8.568;2023-12-20T07:26:25;6.95;;;2.60;;
25846;SDS011;13676;50.168;8.568;2023-12-20T07:28:50;9.18;;;3.03;;
25846;SDS011;13676;50.168;8.568;2023-12-20T07:31:16;6.90;;;2.58;;
25846;SDS011;13676;50.168;8.568;2023-12-20T07:33:41;10.68;;;2.78;;
25846;SDS011;13676;50.168;8.568;2023-12-20T07:36:07;6.25;;;2.83;;
25846;SDS011;13676;50.168;8.568;2023-12-20T07:38:32;8.40;;;3.03;;
25846;SDS011;13676;50.168;8.568;2023-12-20T07:40:58;8.60;;;3.30;;
25846;SDS011;13676;50.168;8.568;2023-12-20T07:43:23;10.05;;;2.50;;
25846;SDS011;13676;50.168;8.568;2023-12-20T07:45:49;6.85;;;2.45;;
25846;SDS011;13676;50.168;8.568;2023-12-20T07:48:14;9.68;;;3.08;;
25846;SDS011;13676;50.168;8.568;2023-12-20T07:50:39;10.70;;;2.70;;
25846;SDS011;13676;50.168;8.568;2023-12-20T07:53:06;9.65;;;2.65;;
25846;SDS011;13676;50.168;8.568;2023-12-20T07:55:32;8.82;;;2.90;;
25846;SDS011;13676;50.168;8.568;2023-12-20T07:57:57;6.00;;;2.45;;
25846;SDS011;13676;50.168;8.568;2023-12-20T08:00:23;7.63;;;2.25;;
25846;SDS011;13676;50.168;8.568;2023-12-20T08:02:48;11.13;;;2.50;;
25846;SDS011;13676;50.168;8.568;2023-12-20T08:05:13;6.25;;;2.20;;
25846;SDS011;13676;50.168;8.568;2023-12-20T08:07:39;8.38;;;2.55;;
25846;SDS011;13676;50.168;8.568;2023-12-20T08:10:04;8.18;;;2.42;;
25846;SDS011;13676;50.168;8.568;2023-12-20T08:12:30;7.85;;;2.25;;
25846;SDS011;13676;50.168;8.568;2023-12-20T08:14:57;13.90;;;2.70;;
25846;SDS011;13676;50.168;8.568;2023-12-20T08:17:22;4.55;;;2.25;;
25846;SDS011;13676;50.168;8.568;2023-12-20T08:19:48;9.95;;;2.60;;
25846;SDS011;13676;50.168;8.568;2023-12-20T08:22:13;9.07;;;2.55;;
25846;SDS011;13676;50.168;8.568;2023-12-20T08:24:39;6.85;;;2.40;;
25846;SDS011;13676;50.168;8.568;2023-12-20T08:27:04;9.73;;;2.67;;
25846;SDS011;13676;50.168;8.568;2023-12-20T08:29:30;12.73;;;2.75;;
25846;SDS011;13676;50.168;8.568;2023-12-20T08:31:55;8.85;;;2.50;;
25846;SDS011;13676;50.168;8.568;2023-12-20T08:34:21;14.20;;;2.45;;
25846;SDS011;13676;50.168;8.568;2023-12-20T08:36:47;8.70;;;2.90;;
25846;SDS011;13676;50.168;8.568;2023-12-20T08:39:13;6.88;;;2.30;;
25846;SDS011;13676;50.168;8.568;2023-12-20T08:41:38;5.63;;;2.42;;
25846;SDS011;13676;50.168;8.568;2023-12-20T08:44:04;7.78;;;2.70;;
25846;SDS011;13676;50.168;8.568;2023-12-20T08:46:29;14.15;;;3.20;;
25846;SDS011;13676;50.168;8.568;2023-12-20T08:48:54;7.97;;;2.45;;
25846;SDS011;13676;50.168;8.568;2023-12-20T08:51:20;8.95;;;3.22;;
25846;SDS011;13676;50.168;8.568;2023-12-20T08:53:46;14.00;;;3.17;;
25846;SDS011;13676;50.168;8.568;2023-12-20T08:56:12;10.98;;;2.88;;
25846;SDS011;13676;50.168;8.568;2023-12-20T08:58:38;10.13;;;2.50;;
25846;SDS011;13676;50.168;8.568;2023-12-20T09:01:03;7.53;;;2.70;;
25846;SDS011;13676;50.168;8.568;2023-12-20T09:03:28;9.07;;;2.58;;
25846;SDS011;13676;50.168;8.568;2023-12-20T09:05:54;11.20;;;2.55;;
25846;SDS011;13676;50.168;8.568;2023-12-20T09:08:19;6.78;;;2.50;;
25846;SDS011;13676;50.168;8.568;2023-12-20T09:10:45;12.40;;;2.55;;
25846;SDS011;13676;50.168;8.568;2023-12-20T09:13:11;13.70;;;3.17;;
25846;SDS011;13676;50.168;8.568;2023-12-20T09:15:37;10.20;;;2.70;;
25846;SDS011;13676;50.168;8.568;2023-12-20T09:18:02;8.75;;;2.53;;
25846;SDS011;13676;50.168;8.568;2023-12-20T09:20:28;12.55;;;2.78;;
25846;SDS011;13676;50.168;8.568;2023-12-20T09:22:53;6.53;;;2.22;;
25846;SDS011;13676;50.168;8.568;2023-12-20T09:25:19;14.38;;;2.42;;
25846;SDS011;13676;50.168;8.568;2023-12-20T09:27:44;12.48;;;2.85;;
25846;SDS011;13676;50.168;8.568;2023-12-20T09:30:10;13.35;;;3.08;;
25846;SDS011;13676;50.168;8.568;2023-12-20T09:32:35;12.57;;;2.40;;
25846;SDS011;13676;50.168;8.568;2023-12-20T09:35:01;5.05;;;2.30;;
25846;SDS011;13676;50.168;8.568;2023-12-20T09:37:27;7.93;;;2.25;;
25846;SDS011;13676;50.168;8.568;2023-12-20T09:39:52;8.45;;;2.10;;
25846;SDS011;13676;50.168;8.568;2023-12-20T09:42:21;9.63;;;2.60;;
25846;SDS011;13676;50.168;8.568;2023-12-20T09:44:50;9.02;;;2.70;;
25846;SDS011;13676;50.168;8.568;2023-12-20T09:47:15;9.90;;;2.75;;
25846;SDS011;13676;50.168;8.568;2023-12-20T09:49:41;7.53;;;2.30;;
25846;SDS011;13676;50.168;8.568;2023-12-20T09:52:07;14.68;;;2.70;;
25846;SDS011;13676;50.168;8.568;2023-12-20T09:54:34;8.93;;;2.47;;
25846;SDS011;13676;50.168;8.568;2023-12-20T09:57:01;13.45;;;2.53;;
25846;SDS011;13676;50.168;8.568;2023-12-20T09:59:27;11.88;;;2.70;;
25846;SDS011;13676;50.168;8.568;2023-12-20T10:01:52;12.68;;;2.85;;
25846;SDS011;13676;50.168;8.568;2023-12-20T10:04:19;13.55;;;2.45;;
25846;SDS011;13676;50.168;8.568;2023-12-20T10:06:45;10.45;;;2.33;;
25846;SDS011;13676;50.168;8.568;2023-12-20T10:09:11;11.52;;;2.40;;
25846;SDS011;13676;50.168;8.568;2023-12-20T10:11:37;9.45;;;2.30;;
25846;SDS011;13676;50.168;8.568;2023-12-20T10:14:03;11.07;;;2.47;;
25846;SDS011;13676;50.168;8.568;2023-12-20T10:16:29;12.93;;;2.53;;
25846;SDS011;13676;50.168;8.568;2023-12-20T10:18:56;11.50;;;2.67;;
25846;SDS011;13676;50.168;8.568;2023-12-20T10:21:22;12.35;;;3.00;;
25846;SDS011;13676;50.168;8.568;2023-12-20T10:23:49;6.47;;;2.25;;
25846;SDS011;13676;50.168;8.568;2023-12-20T10:26:19;6.95;;;2.38;;
25846;SDS011;13676;50.168;8.568;2023-12-20T10:28:45;11.73;;;2.30;;
25846;SDS011;13676;50.168;8.568;2023-12-20T10:31:15;10.88;;;2.70;;
25846;SDS011;13676;50.168;8.568;2023-12-20T10:33:55;9.63;;;2.60;;
25846;SDS011;13676;50.168;8.568;2023-12-20T10:36:23;10.85;;;2.92;;
25846;SDS011;13676;50.168;8.568;2023-12-20T10:38:48;11.88;;;2.47;;
25846;SDS011;13676;50.168;8.568;2023-12-20T10:41:16;8.25;;;1.98;;
25846;SDS011;13676;50.168;8.568;2023-12-20T10:43:42;17.83;;;8.00;;
25846;SDS011;13676;50.168;8.568;2023-12-20T10:46:08;19.70;;;6.55;;
25846;SDS011;13676;50.168;8.568;2023-12-20T10:48:33;17.52;;;4.95;;
25846;SDS011;13676;50.168;8.568;2023-12-20T10:50:59;18.30;;;5.03;;
25846;SDS011;13676;50.168;8.568;2023-12-20T10:53:26;15.07;;;4.00;;
25846;SDS011;13676;50.168;8.568;2023-12-20T10:55:52;12.05;;;3.78;;
25846;SDS011;13676;50.168;8.568;2023-12-20T10:58:21;14.82;;;3.70;;
25846;SDS011;13676;50.168;8.568;2023-12-20T11:00:47;17.50;;;4.03;;
25846;SDS011;13676;50.168;8.568;2023-12-20T11:03:15;13.25;;;3.60;;
25846;SDS011;13676;50.168;8.568;2023-12-20T11:08:51;13.18;;;3.20;;
25846;SDS011;13676;50.168;8.568;2023-12-20T11:11:31;16.80;;;3.17;;
25846;SDS011;13676;50.168;8.568;2023-12-20T11:14:16;17.77;;;2.95;;
25846;SDS011;13676;50.168;8.568;2023-12-20T11:16:47;11.98;;;2.70;;
25846;SDS011;13676;50.168;8.568;2023-12-20T11:19:13;9.30;;;2.50;;
25846;SDS011;13676;50.168;8.568;2023-12-20T11:21:42;7.35;;;2.22;;
25846;SDS011;13676;50.168;8.568;2023-12-20T11:24:07;16.77;;;2.72;;
25846;SDS011;13676;50.168;8.568;2023-12-20T11:26:33;7.78;;;2.70;;
25846;SDS011;13676;50.168;8.568;2023-12-20T11:32:03;7.53;;;2.28;;
25846;SDS011;13676;50.168;8.568;2023-12-20T11:36:58;11.57;;;2.33;;
25846;SDS011;13676;50.168;8.568;2023-12-20T11:39:27;15.35;;;2.40;;
25846;SDS011;13676;50.168;8.568;2023-12-20T11:41:56;9.73;;;2.30;;
25846;SDS011;13676;50.168;8.568;2023-12-20T11:44:22;11.52;;;2.55;;
25846;SDS011;13676;50.168;8.568;2023-12-20T11:46:48;7.07;;;2.33;;
25846;SDS011;13676;50.168;8.568;2023-12-20T11:49:14;10.82;;;2.75;;
25846;SDS011;13676;50.168;8.568;2023-12-20T11:51:42;11.68;;;2.58;;
25846;SDS011;13676;50.168;8.568;2023-12-20T11:54:08;11.90;;;2.20;;
25846;SDS011;13676;50.168;8.568;2023-12-20T11:56:35;11.57;;;2.25;;
25846;SDS011;13676;50.168;8.568;2023-12-20T11:59:01;6.93;;;2.38;;
25846;SDS011;13676;50.168;8.568;2023-12-20T12:01:27;8.82;;;2.05;;
25846;SDS011;13676;50.168;8.568;2023-12-20T12:04:02;7.95;;;2.10;;
25846;SDS011;13676;50.168;8.568;2023-12-20T12:06:28;9.73;;;2.00;;
25846;SDS011;13676;50.168;8.568;2023-12-20T12:08:54;13.25;;;2.25;;
25846;SDS011;13676;50.168;8.568;2023-12-20T12:11:20;9.00;;;1.90;;
25846;SDS011;13676;50.168;8.568;2023-12-20T12:13:46;6.28;;;1.88;;
25846;SDS011;13676;50.168;8.568;2023-12-20T12:16:11;8.45;;;2.33;;
25846;SDS011;13676;50.168;8.568;2023-12-20T12:18:37;6.97;;;2.10;;
25846;SDS011;13676;50.168;8.568;2023-12-20T12:21:02;8.18;;;1.95;;
25846;SDS011;13676;50.168;8.568;2023-12-20T12:23:28;12.02;;;2.67;;
25846;SDS011;13676;50.168;8.568;2023-12-20T12:25:53;13.95;;;2.58;;
25846;SDS011;13676;50.168;8.568;2023-12-20T12:30:58;6.90;;;2.17;;
25846;SDS011;13676;50.168;8.568;2023-12-20T12:33:27;4.90;;;1.75;;
25846;SDS011;13676;50.168;8.568;2023-12-20T12:35:53;7.22;;;1.80;;
25846;SDS011;13676;50.168;8.568;2023-12-20T12:38:21;9.27;;;2.00;;
25846;SDS011;13676;50.168;8.568;2023-12-20T12:40:47;4.80;;;1.50;;
25846;SDS011;13676;50.168;8.568;2023-12-20T12:43:14;8.68;;;1.83;;
25846;SDS011;13676;50.168;8.568;2023-12-20T12:45:40;5.88;;;1.73;;
25846;SDS011;13676;50.168;8.568;2023-12-20T12:48:05;12.32;;;2.20;;
25846;SDS011;13676;50.168;8.568;2023-12-20T12:50:31;9.98;;;1.95;;
25846;SDS011;13676;50.168;8.568;2023-12-20T12:52:56;8.57;;;2.60;;
25846;SDS011;13676;50.168;8.568;2023-12-20T12:55:22;9.02;;;2.90;;
25846;SDS011;13676;50.168;8.568;2023-12-20T12:57:47;13.02;;;3.10;;
25846;SDS011;13676;50.168;8.568;2023-12-20T13:00:13;6.70;;;2.45;;
25846;SDS011;13676;50.168;8.568;2023-12-20T13:02:38;8.68;;;2.10;;
25846;SDS011;13676;50.168;8.568;2023-12-20T13:05:07;4.75;;;1.73;;
25846;SDS011;13676;50.168;8.568;2023-12-20T13:07:33;9.73;;;2.10;;
25846;SDS011;13676;50.168;8.568;2023-12-20T13:09:58;8.85;;;2.17;;
25846;SDS011;13676;50.168;8.568;2023-12-20T13:12:24;6.57;;;2.10;;
25846;SDS011;13676;50.168;8.568;2023-12-20T13:14:49;8.52;;;2.10;;
25846;SDS011;13676;50.168;8.568;2023-12-20T13:17:14;8.95;;;2.05;;
25846;SDS011;13676;50.168;8.568;2023-12-20T13:19:40;9.98;;;2.58;;
25846;SDS011;13676;50.168;8.568;2023-12-20T13:22:05;10.23;;;1.98;;
25846;SDS011;13676;50.168;8.568;2023-12-20T13:24:31;14.70;;;2.38;;
25846;SDS011;13676;50.168;8.568;2023-12-20T13:26:57;8.48;;;2.22;;
25846;SDS011;13676;50.168;8.568;2023-12-20T13:29:23;10.00;;;2.97;;
25846;SDS011;13676;50.168;8.568;2023-12-20T13:31:50;13.38;;;2.33;;
25846;SDS011;13676;50.168;8.568;2023-12-20T13:34:15;14.85;;;2.50;;
25846;SDS011;13676;50.168;8.568;2023-12-20T13:36:42;10.85;;;2.72;;
25846;SDS011;13676;50.168;8.568;2023-12-20T13:39:10;8.60;;;2.28;;
25846;SDS011;13676;50.168;8.568;2023-12-20T13:41:37;7.00;;;2.45;;
25846;SDS011;13676;50.168;8.568;2023-12-20T13:44:02;10.18;;;2.22;;
25846;SDS011;13676;50.168;8.568;2023-12-20T13:46:28;9.00;;;2.60;;
25846;SDS011;13676;50.168;8.568;2023-12-20T13:48:54;11.77;;;2.60;;
25846;SDS011;13676;50.168;8.568;2023-12-20T13:51:19;11.43;;;2.53;;
25846;SDS011;13676;50.168;8.568;2023-12-20T13:53:46;11.02;;;2.50;;
25846;SDS011;13676;50.168;8.568;2023-12-20T13:56:12;8.23;;;2.00;;
25846;SDS011;13676;50.168;8.568;2023-12-20T13:58:37;11.25;;;2.40;;
25846;SDS011;13676;50.168;8.568;2023-12-20T14:01:04;8.80;;;2.23;;
25846;SDS011;13676;50.168;8.568;2023-12-20T14:03:30;7.95;;;2.55;;
25846;SDS011;13676;50.168;8.568;2023-12-20T14:05:56;11.50;;;4.13;;
25846;SDS011;13676;50.168;8.568;2023-12-20T14:08:21;11.32;;;2.90;;
25846;SDS011;13676;50.168;8.568;2023-12-20T14:10:46;7.82;;;2.40;;
25846;SDS011;13676;50.168;8.568;2023-12-20T14:13:12;8.25;;;3.05;;
25846;SDS011;13676;50.168;8.568;2023-12-20T14:15:37;4.18;;;1.98;;
25846;SDS011;13676;50.168;8.568;2023-12-20T14:18:04;5.25;;;2.00;;
25846;SDS011;13676;50.168;8.568;2023-12-20T14:20:31;10.23;;;2.55;;
25846;SDS011;13676;50.168;8.568;2023-12-20T14:22:57;10.77;;;2.15;;
25846;SDS011;13676;50.168;8.568;2023-12-20T14:25:23;10.48;;;2.33;;
25846;SDS011;13676;50.168;8.568;2023-12-20T14:27:48;10.70;;;1.98;;
25846;SDS011;13676;50.168;8.568;2023-12-20T14:30:14;7.65;;;2.63;;
25846;SDS011;13676;50.168;8.568;2023-12-20T14:32:39;8.10;;;2.03;;
25846;SDS011;13676;50.168;8.568;2023-12-20T14:35:05;7.82;;;2.05;;
25846;SDS011;13676;50.168;8.568;2023-12-20T14:37:31;6.10;;;2.22;;
25846;SDS011;13676;50.168;8.568;2023-12-20T14:39:57;6.53;;;1.60;;
25846;SDS011;13676;50.168;8.568;2023-12-20T14:42:22;5.55;;;1.88;;
25846;SDS011;13676;50.168;8.568;2023-12-20T14:44:47;9.50;;;2.55;;
25846;SDS011;13676;50.168;8.568;2023-12-20T14:47:13;6.78;;;2.10;;